sensor_id;sensor_type;location;lat;lon;timestamp;temperature;humidity
12438;DHT22;6283;51.330;12.374;2024-01-15T00:01:49;2.00;1.00
12438;DHT22;6283;51.330;12.374;2024-01-15T00:04:15;2.10;1.00
12438;DHT22;6283;51.330;12.374;2024-01-15T00:06:41;2.00;1.00
12438;DHT22;6283;51.330;12.374;2024-01-15T00:09:06;2.10;1.00
12438;DHT22;6283;51.330;12.374;2024-01-15T00:11:32;2.10;1.00
12438;DHT22;6283;51.330;12.374;2024-01-15T00:13:58;2.10;1.00
12438;DHT22;6283;51.330;12.374;2024-01-15T00:16:24;2.30;1.00
12438;DHT22;6283;51.330;12.374;2024-01-15T00:18:50;2.10;1.00
12438;DHT22;6283;51.330;12.374;2024-01-15T00:21:15;2.10;1.00
12438;DHT22;6283;51.330;12.374;2024-01-15T00:23:44;1.80;1.00
12438;DHT22;6283;51.330;12.374;2024-01-15T00:26:10;1.80;1.00
12438;DHT22;6283;51.330;12.374;2024-01-15T00:28:36;1.90;1.00
12438;DHT22;6283;51.330;12.374;2024-01-15T00:31:03;2.10;1.00
12438;DHT22;6283;51.330;12.374;2024-01-15T00:33:29;2.00;1.00
12438;DHT22;6283;51.330;12.374;2024-01-15T00:35:55;1.80;1.00
12438;DHT22;6283;51.330;12.374;2024-01-15T00:38:20;1.90;1.00
12438;DHT22;6283;51.330;12.374;2024-01-15T00:40:46;1.90;1.00
12438;DHT22;6283;51.330;12.374;2024-01-15T00:43:12;2.00;1.00
12438;DHT22;6283;51.330;12.374;2024-01-15T00:45:37;1.90;1.00
12438;DHT22;6283;51.330;12.374;2024-01-15T00:48:04;1.90;1.00
12438;DHT22;6283;51.330;12.374;2024-01-15T00:50:29;1.90;1.00
12438;DHT22;6283;51.330;12.374;2024-01-15T00:52:55;1.90;1.00
12438;DHT22;6283;51.330;12.374;2024-01-15T00:55:21;1.90;1.00
12438;DHT22;6283;51.330;12.374;2024-01-15T00:57:46;2.00;1.00
12438;DHT22;6283;51.330;12.374;2024-01-15T01:00:12;2.00;1.00
12438;DHT22;6283;51.330;12.374;2024-01-15T01:02:38;1.80;1.00
12438;DHT22;6283;51.330;12.374;2024-01-15T01:05:04;1.70;1.00
12438;DHT22;6283;51.330;12.374;2024-01-15T01:07:30;1.90;1.00
12438;DHT22;6283;51.330;12.374;2024-01-15T01:09:55;2.00;1.00
12438;DHT22;6283;51.330;12.374;2024-01-15T01:12:21;1.90;1.00
12438;DHT22;6283;51.330;12.374;2024-01-15T01:14:46;1.90;1.00
12438;DHT22;6283;51.330;12.374;2024-01-15T01:17:12;1.80;1.00
12438;DHT22;6283;51.330;12.374;2024-01-15T01:19:38;2.00;1.00
12438;DHT22;6283;51.330;12.374;2024-01-15T01:22:03;1.90;1.00
12438;DHT22;6283;51.330;12.374;2024-01-15T01:24:29;1.80;1.00
12438;DHT22;6283;51.330;12.374;2024-01-15T01:26:55;1.80;1.00
12438;DHT22;6283;51.330;12.374;2024-01-15T01:29:20;2.00;1.00
12438;DHT22;6283;51.330;12.374;2024-01-15T01:31:46;1.90;1.00
12438;DHT22;6283;51.330;12.374;2024-01-15T01:34:16;1.80;1.00
12438;DHT22;6283;51.330;12.374;2024-01-15T01:36:45;1.90;1.00
12438;DHT22;6283;51.330;12.374;2024-01-15T01:39:10;1.80;1.00
12438;DHT22;6283;51.330;12.374;2024-01-15T01:41:37;2.00;1.00
12438;DHT22;6283;51.330;12.374;2024-01-15T01:44:03;1.90;1.00
12438;DHT22;6283;51.330;12.374;2024-01-15T01:46:29;1.90;1.00
12438;DHT22;6283;51.330;12.374;2024-01-15T01:48:55;1.80;1.00
12438;DHT22;6283;51.330;12.374;2024-01-15T01:51:24;1.90;1.00
12438;DHT22;6283;51.330;12.374;2024-01-15T01:53:50;1.80;1.00
12438;DHT22;6283;51.330;12.374;2024-01-15T01:56:17;1.70;1.00
12438;DHT22;6283;51.330;12.374;2024-01-15T01:58:46;1.80;1.00
12438;DHT22;6283;51.330;12.374;2024-01-15T02:01:12;1.80;1.00
12438;DHT22;6283;51.330;12.374;2024-01-15T02:03:39;1.80;1.00
12438;DHT22;6283;51.330;12.374;2024-01-15T02:06:05;2.00;1.00
12438;DHT22;6283;51.330;12.374;2024-01-15T02:08:31;1.70;1.00
12438;DHT22;6283;51.330;12.374;2024-01-15T02:10:57;1.90;1.00
12438;DHT22;6283;51.330;12.374;2024-01-15T02:13:22;1.70;1.00
12438;DHT22;6283;51.330;12.374;2024-01-15T02:15:48;1.70;1.00
12438;DHT22;6283;51.330;12.374;2024-01-15T02:18:14;1.60;1.00
12438;DHT22;6283;51.330;12.374;2024-01-15T02:20:39;1.50;1.00
12438;DHT22;6283;51.330;12.374;2024-01-15T02:25:41;1.50;1.00
12438;DHT22;6283;51.330;12.374;2024-01-15T02:28:09;1.60;1.00
12438;DHT22;6283;51.330;12.374;2024-01-15T02:30:40;1.60;1.00
12438;DHT22;6283;51.330;12.374;2024-01-15T02:33:10;1.60;1.00
12438;DHT22;6283;51.330;12.374;2024-01-15T02:35:35;1.60;1.00
12438;DHT22;6283;51.330;12.374;2024-01-15T02:38:02;1.70;1.00
12438;DHT22;6283;51.330;12.374;2024-01-15T02:40:28;1.60;1.00
12438;DHT22;6283;51.330;12.374;2024-01-15T02:42:54;1.70;1.00
12438;DHT22;6283;51.330;12.374;2024-01-15T02:45:21;1.70;1.00
12438;DHT22;6283;51.330;12.374;2024-01-15T02:47:47;1.50;1.00
12438;DHT22;6283;51.330;12.374;2024-01-15T02:50:13;1.50;1.00
12438;DHT22;6283;51.330;12.374;2024-01-15T02:52:38;1.60;1.00
12438;DHT22;6283;51.330;12.374;2024-01-15T02:55:04;1.60;1.00
12438;DHT22;6283;51.330;12.374;2024-01-15T02:57:30;1.50;1.00
12438;DHT22;6283;51.330;12.374;2024-01-15T02:59:56;1.60;1.00
12438;DHT22;6283;51.330;12.374;2024-01-15T03:02:21;1.60;1.00
12438;DHT22;6283;51.330;12.374;2024-01-15T03:04:47;1.70;1.00
12438;DHT22;6283;51.330;12.374;2024-01-15T03:07:13;1.50;1.00
12438;DHT22;6283;51.330;12.374;2024-01-15T03:09:38;1.60;1.00
12438;DHT22;6283;51.330;12.374;2024-01-15T03:12:04;1.60;1.00
12438;DHT22;6283;51.330;12.374;2024-01-15T03:14:30;1.70;1.00
12438;DHT22;6283;51.330;12.374;2024-01-15T03:16:56;1.80;1.00
12438;DHT22;6283;51.330;12.374;2024-01-15T03:19:21;1.60;1.00
12438;DHT22;6283;51.330;12.374;2024-01-15T03:21:47;1.50;1.00
12438;DHT22;6283;51.330;12.374;2024-01-15T03:24:12;1.50;1.00
12438;DHT22;6283;51.330;12.374;2024-01-15T03:26:38;1.60;1.00
12438;DHT22;6283;51.330;12.374;2024-01-15T03:29:04;1.50;1.00
12438;DHT22;6283;51.330;12.374;2024-01-15T03:31:30;1.30;1.00
12438;DHT22;6283;51.330;12.374;2024-01-15T03:33:56;1.30;1.00
12438;DHT22;6283;51.330;12.374;2024-01-15T03:36:21;1.60;1.00
12438;DHT22;6283;51.330;12.374;2024-01-15T03:38:47;1.40;1.00
12438;DHT22;6283;51.330;12.374;2024-01-15T03:41:13;1.40;1.00
12438;DHT22;6283;51.330;12.374;2024-01-15T03:43:38;1.40;1.00
12438;DHT22;6283;51.330;12.374;2024-01-15T03:46:05;1.30;1.00
12438;DHT22;6283;51.330;12.374;2024-01-15T03:48:31;1.30;1.00
12438;DHT22;6283;51.330;12.374;2024-01-15T03:50:56;1.30;1.00
12438;DHT22;6283;51.330;12.374;2024-01-15T03:53:22;1.20;1.00
12438;DHT22;6283;51.330;12.374;2024-01-15T03:55:48;1.30;1.00
12438;DHT22;6283;51.330;12.374;2024-01-15T03:58:14;1.20;1.00
12438;DHT22;6283;51.330;12.374;2024-01-15T04:00:41;1.10;1.00
12438;DHT22;6283;51.330;12.374;2024-01-15T04:03:06;1.10;1.00
12438;DHT22;6283;51.330;12.374;2024-01-15T04:05:32;1.30;1.00
12438;DHT22;6283;51.330;12.374;2024-01-15T04:07:57;1.20;1.00
12438;DHT22;6283;51.330;12.374;2024-01-15T04:10:23;1.40;1.00
12438;DHT22;6283;51.330;12.374;2024-01-15T04:12:49;1.50;1.00
12438;DHT22;6283;51.330;12.374;2024-01-15T04:15:15;1.50;1.00
12438;DHT22;6283;51.330;12.374;2024-01-15T04:17:41;1.30;1.00
12438;DHT22;6283;51.330;12.374;2024-01-15T04:20:07;1.40;1.00
12438;DHT22;6283;51.330;12.374;2024-01-15T04:22:36;1.60;1.00
12438;DHT22;6283;51.330;12.374;2024-01-15T04:25:02;1.50;1.00
12438;DHT22;6283;51.330;12.374;2024-01-15T04:27:29;1.50;1.00
12438;DHT22;6283;51.330;12.374;2024-01-15T04:29:54;1.50;1.00
12438;DHT22;6283;51.330;12.374;2024-01-15T04:32:20;1.30;1.00
12438;DHT22;6283;51.330;12.374;2024-01-15T04:34:46;1.40;1.00
12438;DHT22;6283;51.330;12.374;2024-01-15T04:37:11;1.40;1.00
12438;DHT22;6283;51.330;12.374;2024-01-15T04:39:38;1.40;1.00
12438;DHT22;6283;51.330;12.374;2024-01-15T04:42:04;1.30;1.00
12438;DHT22;6283;51.330;12.374;2024-01-15T04:44:29;1.30;1.00
12438;DHT22;6283;51.330;12.374;2024-01-15T04:46:55;1.30;1.00
12438;DHT22;6283;51.330;12.374;2024-01-15T04:49:21;1.20;1.00
12438;DHT22;6283;51.330;12.374;2024-01-15T04:51:46;1.30;1.00
12438;DHT22;6283;51.330;12.374;2024-01-15T04:54:12;1.20;1.00
12438;DHT22;6283;51.330;12.374;2024-01-15T04:56:38;1.40;1.00
12438;DHT22;6283;51.330;12.374;2024-01-15T04:59:03;1.20;1.00
12438;DHT22;6283;51.330;12.374;2024-01-15T05:01:32;1.20;1.00
12438;DHT22;6283;51.330;12.374;2024-01-15T05:03:58;1.40;1.00
12438;DHT22;6283;51.330;12.374;2024-01-15T05:06:24;1.30;1.00
12438;DHT22;6283;51.330;12.374;2024-01-15T05:08:49;1.40;1.00
12438;DHT22;6283;51.330;12.374;2024-01-15T05:11:15;1.30;1.00
12438;DHT22;6283;51.330;12.374;2024-01-15T05:13:41;1.40;1.00
12438;DHT22;6283;51.330;12.374;2024-01-15T05:16:06;1.30;1.00
12438;DHT22;6283;51.330;12.374;2024-01-15T05:18:32;1.30;1.00
12438;DHT22;6283;51.330;12.374;2024-01-15T05:20:58;1.60;1.00
12438;DHT22;6283;51.330;12.374;2024-01-15T05:23:23;1.70;1.00
12438;DHT22;6283;51.330;12.374;2024-01-15T05:25:49;1.70;1.00
12438;DHT22;6283;51.330;12.374;2024-01-15T05:28:15;1.70;1.00
12438;DHT22;6283;51.330;12.374;2024-01-15T05:30:40;1.70;1.00
12438;DHT22;6283;51.330;12.374;2024-01-15T05:33:06;1.70;1.00
12438;DHT22;6283;51.330;12.374;2024-01-15T05:35:33;1.80;1.00
12438;DHT22;6283;51.330;12.374;2024-01-15T05:37:59;1.50;1.00
12438;DHT22;6283;51.330;12.374;2024-01-15T05:40:24;1.40;1.00
12438;DHT22;6283;51.330;12.374;2024-01-15T05:42:50;1.70;1.00
12438;DHT22;6283;51.330;12.374;2024-01-15T05:45:16;1.50;1.00
12438;DHT22;6283;51.330;12.374;2024-01-15T05:47:42;1.50;1.00
12438;DHT22;6283;51.330;12.374;2024-01-15T05:50:09;1.60;1.00
12438;DHT22;6283;51.330;12.374;2024-01-15T05:52:34;1.30;1.00
12438;DHT22;6283;51.330;12.374;2024-01-15T05:55:00;1.50;1.00
12438;DHT22;6283;51.330;12.374;2024-01-15T05:57:26;1.40;1.00
12438;DHT22;6283;51.330;12.374;2024-01-15T05:59:51;1.40;1.00
12438;DHT22;6283;51.330;12.374;2024-01-15T06:02:17;1.30;1.00
12438;DHT22;6283;51.330;12.374;2024-01-15T06:04:43;1.40;1.00
12438;DHT22;6283;51.330;12.374;2024-01-15T06:07:08;1.40;1.00
12438;DHT22;6283;51.330;12.374;2024-01-15T06:09:34;1.50;1.00
12438;DHT22;6283;51.330;12.374;2024-01-15T06:11:59;1.40;1.00
12438;DHT22;6283;51.330;12.374;2024-01-15T06:14:25;1.50;1.00
12438;DHT22;6283;51.330;12.374;2024-01-15T06:16:52;1.20;1.00
12438;DHT22;6283;51.330;12.374;2024-01-15T06:19:17;1.40;1.00
12438;DHT22;6283;51.330;12.374;2024-01-15T06:21:43;1.50;1.00
12438;DHT22;6283;51.330;12.374;2024-01-15T06:24:09;1.40;1.00
12438;DHT22;6283;51.330;12.374;2024-01-15T06:26:35;1.50;1.00
12438;DHT22;6283;51.330;12.374;2024-01-15T06:29:01;1.30;1.00
12438;DHT22;6283;51.330;12.374;2024-01-15T06:31:28;1.40;1.00
12438;DHT22;6283;51.330;12.374;2024-01-15T06:33:54;1.40;1.00
12438;DHT22;6283;51.330;12.374;2024-01-15T06:36:20;1.50;1.00
12438;DHT22;6283;51.330;12.374;2024-01-15T06:38:46;1.50;1.00
12438;DHT22;6283;51.330;12.374;2024-01-15T06:41:12;1.40;1.00
12438;DHT22;6283;51.330;12.374;2024-01-15T06:43:37;1.50;1.00
12438;DHT22;6283;51.330;12.374;2024-01-15T06:46:03;1.40;1.00
12438;DHT22;6283;51.330;12.374;2024-01-15T06:48:29;1.50;1.00
12438;DHT22;6283;51.330;12.374;2024-01-15T06:50:54;1.70;1.00
12438;DHT22;6283;51.330;12.374;2024-01-15T06:53:20;1.60;1.00
12438;DHT22;6283;51.330;12.374;2024-01-15T06:55:46;1.70;1.00
12438;DHT22;6283;51.330;12.374;2024-01-15T06:58:12;1.80;1.00
12438;DHT22;6283;51.330;12.374;2024-01-15T07:00:38;1.60;1.00
12438;DHT22;6283;51.330;12.374;2024-01-15T07:03:03;1.70;1.00
12438;DHT22;6283;51.330;12.374;2024-01-15T07:05:32;1.70;1.00
12438;DHT22;6283;51.330;12.374;2024-01-15T07:07:58;1.50;1.00
12438;DHT22;6283;51.330;12.374;2024-01-15T07:10:24;1.50;1.00
12438;DHT22;6283;51.330;12.374;2024-01-15T07:12:49;1.60;1.00
12438;DHT22;6283;51.330;12.374;2024-01-15T07:15:15;1.70;1.00
12438;DHT22;6283;51.330;12.374;2024-01-15T07:17:41;1.60;1.00
12438;DHT22;6283;51.330;12.374;2024-01-15T07:20:08;1.40;1.00
12438;DHT22;6283;51.330;12.374;2024-01-15T07:22:37;1.40;1.00
12438;DHT22;6283;51.330;12.374;2024-01-15T07:25:03;1.60;1.00
12438;DHT22;6283;51.330;12.374;2024-01-15T07:27:30;1.70;1.00
12438;DHT22;6283;51.330;12.374;2024-01-15T07:29:57;1.70;1.00
12438;DHT22;6283;51.330;12.374;2024-01-15T07:32:23;1.20;1.00
12438;DHT22;6283;51.330;12.374;2024-01-15T07:34:48;1.70;1.00
12438;DHT22;6283;51.330;12.374;2024-01-15T07:37:14;1.70;1.00
12438;DHT22;6283;51.330;12.374;2024-01-15T07:39:40;1.50;1.00
12438;DHT22;6283;51.330;12.374;2024-01-15T07:42:06;1.60;1.00
12438;DHT22;6283;51.330;12.374;2024-01-15T07:44:31;1.70;1.00
12438;DHT22;6283;51.330;12.374;2024-01-15T07:46:57;1.70;1.00
12438;DHT22;6283;51.330;12.374;2024-01-15T07:49:23;1.60;1.00
12438;DHT22;6283;51.330;12.374;2024-01-15T07:51:49;1.60;1.00
12438;DHT22;6283;51.330;12.374;2024-01-15T07:54:14;1.80;1.00
12438;DHT22;6283;51.330;12.374;2024-01-15T07:57:02;1.60;1.00
12438;DHT22;6283;51.330;12.374;2024-01-15T07:59:31;1.60;1.00
12438;DHT22;6283;51.330;12.374;2024-01-15T08:01:58;1.60;1.00
12438;DHT22;6283;51.330;12.374;2024-01-15T08:04:24;1.60;1.00
12438;DHT22;6283;51.330;12.374;2024-01-15T08:06:50;1.60;1.00
12438;DHT22;6283;51.330;12.374;2024-01-15T08:09:16;1.50;1.00
12438;DHT22;6283;51.330;12.374;2024-01-15T08:11:42;1.70;1.00
12438;DHT22;6283;51.330;12.374;2024-01-15T08:14:08;1.60;1.00
12438;DHT22;6283;51.330;12.374;2024-01-15T08:16:35;1.70;1.00
12438;DHT22;6283;51.330;12.374;2024-01-15T08:19:01;1.80;1.00
12438;DHT22;6283;51.330;12.374;2024-01-15T08:21:26;1.70;1.00
12438;DHT22;6283;51.330;12.374;2024-01-15T08:23:58;1.70;1.00
12438;DHT22;6283;51.330;12.374;2024-01-15T08:26:24;1.70;1.00
12438;DHT22;6283;51.330;12.374;2024-01-15T08:28:50;1.40;1.00
12438;DHT22;6283;51.330;12.374;2024-01-15T08:31:16;1.50;1.00
12438;DHT22;6283;51.330;12.374;2024-01-15T08:33:42;1.50;1.00
12438;DHT22;6283;51.330;12.374;2024-01-15T08:36:09;1.80;1.00
12438;DHT22;6283;51.330;12.374;2024-01-15T08:38:34;1.70;1.00
12438;DHT22;6283;51.330;12.374;2024-01-15T08:41:00;1.80;1.00
12438;DHT22;6283;51.330;12.374;2024-01-15T08:43:26;1.60;1.00
12438;DHT22;6283;51.330;12.374;2024-01-15T08:45:53;1.70;1.00
12438;DHT22;6283;51.330;12.374;2024-01-15T08:48:18;1.80;1.00
12438;DHT22;6283;51.330;12.374;2024-01-15T08:50:44;1.70;1.00
12438;DHT22;6283;51.330;12.374;2024-01-15T08:53:13;1.90;1.00
12438;DHT22;6283;51.330;12.374;2024-01-15T08:55:38;1.80;1.00
12438;DHT22;6283;51.330;12.374;2024-01-15T08:58:04;1.90;1.00
12438;DHT22;6283;51.330;12.374;2024-01-15T09:00:31;1.90;1.00
12438;DHT22;6283;51.330;12.374;2024-01-15T09:02:57;1.90;1.00
12438;DHT22;6283;51.330;12.374;2024-01-15T09:05:23;2.00;1.00
12438;DHT22;6283;51.330;12.374;2024-01-15T09:07:48;1.90;1.00
12438;DHT22;6283;51.330;12.374;2024-01-15T09:10:16;2.10;1.00
12438;DHT22;6283;51.330;12.374;2024-01-15T09:12:42;2.20;1.00
12438;DHT22;6283;51.330;12.374;2024-01-15T09:15:08;2.10;1.00
12438;DHT22;6283;51.330;12.374;2024-01-15T09:17:34;2.20;1.00
12438;DHT22;6283;51.330;12.374;2024-01-15T09:19:59;2.10;1.00
12438;DHT22;6283;51.330;12.374;2024-01-15T09:22:25;2.20;1.00
12438;DHT22;6283;51.330;12.374;2024-01-15T09:24:51;2.10;1.00
12438;DHT22;6283;51.330;12.374;2024-01-15T09:27:17;2.20;1.00
12438;DHT22;6283;51.330;12.374;2024-01-15T09:29:43;2.20;1.00
12438;DHT22;6283;51.330;12.374;2024-01-15T09:32:11;2.30;1.00
12438;DHT22;6283;51.330;12.374;2024-01-15T09:34:38;2.10;1.00
12438;DHT22;6283;51.330;12.374;2024-01-15T09:37:04;2.10;1.00
12438;DHT22;6283;51.330;12.374;2024-01-15T09:39:29;2.10;1.00
12438;DHT22;6283;51.330;12.374;2024-01-15T09:41:56;2.10;1.00
12438;DHT22;6283;51.330;12.374;2024-01-15T09:44:23;2.40;1.00
12438;DHT22;6283;51.330;12.374;2024-01-15T09:46:49;2.30;1.00
12438;DHT22;6283;51.330;12.374;2024-01-15T09:49:16;2.50;1.00
12438;DHT22;6283;51.330;12.374;2024-01-15T09:51:43;2.30;1.00
12438;DHT22;6283;51.330;12.374;2024-01-15T09:54:09;2.50;1.00
12438;DHT22;6283;51.330;12.374;2024-01-15T09:56:35;2.50;1.00
12438;DHT22;6283;51.330;12.374;2024-01-15T09:59:01;2.30;1.00
12438;DHT22;6283;51.330;12.374;2024-01-15T10:01:28;2.20;1.00
12438;DHT22;6283;51.330;12.374;2024-01-15T10:03:55;2.30;1.00
12438;DHT22;6283;51.330;12.374;2024-01-15T10:06:21;2.40;1.00
12438;DHT22;6283;51.330;12.374;2024-01-15T10:08:49;2.40;1.00
12438;DHT22;6283;51.330;12.374;2024-01-15T10:11:15;2.50;1.00
12438;DHT22;6283;51.330;12.374;2024-01-15T10:13:49;2.70;1.00
12438;DHT22;6283;51.330;12.374;2024-01-15T10:16:19;2.80;1.00
12438;DHT22;6283;51.330;12.374;2024-01-15T10:18:44;2.70;1.00
12438;DHT22;6283;51.330;12.374;2024-01-15T10:21:10;2.70;1.00
12438;DHT22;6283;51.330;12.374;2024-01-15T10:23:36;2.70;1.00
12438;DHT22;6283;51.330;12.374;2024-01-15T10:26:03;2.50;1.00
12438;DHT22;6283;51.330;12.374;2024-01-15T10:28:29;2.70;1.00
12438;DHT22;6283;51.330;12.374;2024-01-15T10:30:57;2.60;1.00
12438;DHT22;6283;51.330;12.374;2024-01-15T10:33:24;2.50;1.00
12438;DHT22;6283;51.330;12.374;2024-01-15T10:35:54;2.80;1.00
12438;DHT22;6283;51.330;12.374;2024-01-15T10:38:23;2.80;1.00
12438;DHT22;6283;51.330;12.374;2024-01-15T10:40:56;2.50;1.00
12438;DHT22;6283;51.330;12.374;2024-01-15T10:43:22;2.80;1.00
12438;DHT22;6283;51.330;12.374;2024-01-15T10:45:49;2.80;1.00
12438;DHT22;6283;51.330;12.374;2024-01-15T10:48:19;2.80;1.00
12438;DHT22;6283;51.330;12.374;2024-01-15T10:50:45;2.70;1.00
12438;DHT22;6283;51.330;12.374;2024-01-15T10:53:12;2.90;1.00
12438;DHT22;6283;51.330;12.374;2024-01-15T10:55:39;2.60;1.00
12438;DHT22;6283;51.330;12.374;2024-01-15T10:58:08;2.50;1.00
12438;DHT22;6283;51.330;12.374;2024-01-15T11:00:35;2.80;1.00
12438;DHT22;6283;51.330;12.374;2024-01-15T11:03:03;2.90;1.00
12438;DHT22;6283;51.330;12.374;2024-01-15T11:05:34;2.80;1.00
12438;DHT22;6283;51.330;12.374;2024-01-15T11:08:02;2.60;1.00
12438;DHT22;6283;51.330;12.374;2024-01-15T11:10:48;3.00;1.00
12438;DHT22;6283;51.330;12.374;2024-01-15T11:16:00;3.00;1.00
12438;DHT22;6283;51.330;12.374;2024-01-15T11:18:37;2.90;1.00
12438;DHT22;6283;51.330;12.374;2024-01-15T11:23:48;3.00;1.00
12438;DHT22;6283;51.330;12.374;2024-01-15T11:26:45;3.10;1.00
12438;DHT22;6283;51.330;12.374;2024-01-15T11:29:33;2.90;1.00
12438;DHT22;6283;51.330;12.374;2024-01-15T11:34:51;3.10;1.00
12438;DHT22;6283;51.330;12.374;2024-01-15T11:37:18;2.90;1.00
12438;DHT22;6283;51.330;12.374;2024-01-15T11:39:44;3.00;1.00
12438;DHT22;6283;51.330;12.374;2024-01-15T11:42:11;3.30;1.00
12438;DHT22;6283;51.330;12.374;2024-01-15T11:44:38;3.20;1.00
12438;DHT22;6283;51.330;12.374;2024-01-15T11:47:05;3.10;1.00
12438;DHT22;6283;51.330;12.374;2024-01-15T11:52:11;3.10;1.00
12438;DHT22;6283;51.330;12.374;2024-01-15T11:54:38;3.00;1.00
12438;DHT22;6283;51.330;12.374;2024-01-15T11:57:10;3.10;1.00
12438;DHT22;6283;51.330;12.374;2024-01-15T11:59:40;2.80;1.00
12438;DHT22;6283;51.330;12.374;2024-01-15T12:02:06;3.10;1.00
12438;DHT22;6283;51.330;12.374;2024-01-15T12:04:32;3.00;1.00
12438;DHT22;6283;51.330;12.374;2024-01-15T12:06:58;3.10;1.00
12438;DHT22;6283;51.330;12.374;2024-01-15T12:09:23;3.00;1.00
12438;DHT22;6283;51.330;12.374;2024-01-15T12:11:57;2.90;1.00
12438;DHT22;6283;51.330;12.374;2024-01-15T12:14:31;2.90;1.00
12438;DHT22;6283;51.330;12.374;2024-01-15T12:16:57;3.00;1.00
12438;DHT22;6283;51.330;12.374;2024-01-15T12:19:23;3.10;1.00
12438;DHT22;6283;51.330;12.374;2024-01-15T12:21:50;3.10;1.00
12438;DHT22;6283;51.330;12.374;2024-01-15T12:24:17;3.10;1.00
12438;DHT22;6283;51.330;12.374;2024-01-15T12:26:43;3.10;1.00
12438;DHT22;6283;51.330;12.374;2024-01-15T12:29:10;2.90;1.00
12438;DHT22;6283;51.330;12.374;2024-01-15T12:31:36;3.20;1.00
12438;DHT22;6283;51.330;12.374;2024-01-15T12:34:02;3.20;1.00
12438;DHT22;6283;51.330;12.374;2024-01-15T12:36:31;3.10;1.00
12438;DHT22;6283;51.330;12.374;2024-01-15T12:39:00;3.30;1.00
12438;DHT22;6283;51.330;12.374;2024-01-15T12:41:26;3.10;1.00
12438;DHT22;6283;51.330;12.374;2024-01-15T12:43:51;3.20;1.00
12438;DHT22;6283;51.330;12.374;2024-01-15T12:46:17;3.10;1.00
12438;DHT22;6283;51.330;12.374;2024-01-15T12:48:44;3.30;1.00
12438;DHT22;6283;51.330;12.374;2024-01-15T12:51:10;3.20;1.00
12438;DHT22;6283;51.330;12.374;2024-01-15T12:53:36;3.30;1.00
12438;DHT22;6283;51.330;12.374;2024-01-15T12:56:01;3.10;1.00
12438;DHT22;6283;51.330;12.374;2024-01-15T12:58:27;3.30;1.00
12438;DHT22;6283;51.330;12.374;2024-01-15T13:00:53;3.30;1.00
12438;DHT22;6283;51.330;12.374;2024-01-15T13:03:18;3.40;1.00
12438;DHT22;6283;51.330;12.374;2024-01-15T13:05:44;3.20;1.00
12438;DHT22;6283;51.330;12.374;2024-01-15T13:08:10;3.10;1.00
12438;DHT22;6283;51.330;12.374;2024-01-15T13:10:36;3.10;1.00
12438;DHT22;6283;51.330;12.374;2024-01-15T13:13:02;3.10;1.00
12438;DHT22;6283;51.330;12.374;2024-01-15T13:15:27;3.20;1.00
12438;DHT22;6283;51.330;12.374;2024-01-15T13:17:53;3.10;1.00
12438;DHT22;6283;51.330;12.374;2024-01-15T13:20:19;3.20;1.00
12438;DHT22;6283;51.330;12.374;2024-01-15T13:22:45;3.00;1.00
12438;DHT22;6283;51.330;12.374;2024-01-15T13:25:11;3.10;1.00
12438;DHT22;6283;51.330;12.374;2024-01-15T13:27:36;3.10;1.00
12438;DHT22;6283;51.330;12.374;2024-01-15T13:30:03;3.10;1.00
12438;DHT22;6283;51.330;12.374;2024-01-15T13:32:29;2.90;1.00
12438;DHT22;6283;51.330;12.374;2024-01-15T13:34:56;3.00;1.00
12438;DHT22;6283;51.330;12.374;2024-01-15T13:37:22;3.30;1.00
12438;DHT22;6283;51.330;12.374;2024-01-15T13:39:50;3.10;1.00
12438;DHT22;6283;51.330;12.374;2024-01-15T13:42:17;3.20;1.00
12438;DHT22;6283;51.330;12.374;2024-01-15T13:44:42;3.10;1.00
12438;DHT22;6283;51.330;12.374;2024-01-15T13:47:08;3.00;1.00
12438;DHT22;6283;51.330;12.374;2024-01-15T13:49:34;3.10;1.00
12438;DHT22;6283;51.330;12.374;2024-01-15T13:52:01;3.20;1.00
12438;DHT22;6283;51.330;12.374;2024-01-15T13:54:29;3.20;1.00
12438;DHT22;6283;51.330;12.374;2024-01-15T13:56:55;3.30;1.00
12438;DHT22;6283;51.330;12.374;2024-01-15T13:59:21;3.30;1.00
12438;DHT22;6283;51.330;12.374;2024-01-15T14:01:46;3.20;1.00
12438;DHT22;6283;51.330;12.374;2024-01-15T14:04:13;3.40;1.00
12438;DHT22;6283;51.330;12.374;2024-01-15T14:06:39;3.40;1.00
12438;DHT22;6283;51.330;12.374;2024-01-15T14:09:04;3.30;1.00
12438;DHT22;6283;51.330;12.374;2024-01-15T14:11:31;3.40;1.00
12438;DHT22;6283;51.330;12.374;2024-01-15T14:13:56;3.30;1.00
12438;DHT22;6283;51.330;12.374;2024-01-15T14:16:22;3.20;1.00
12438;DHT22;6283;51.330;12.374;2024-01-15T14:18:48;3.20;1.00
12438;DHT22;6283;51.330;12.374;2024-01-15T14:21:13;3.20;1.00
12438;DHT22;6283;51.330;12.374;2024-01-15T14:23:40;3.20;1.00
12438;DHT22;6283;51.330;12.374;2024-01-15T14:26:05;3.20;1.00
12438;DHT22;6283;51.330;12.374;2024-01-15T14:28:31;3.10;1.00
12438;DHT22;6283;51.330;12.374;2024-01-15T14:30:57;3.10;1.00
12438;DHT22;6283;51.330;12.374;2024-01-15T14:33:26;3.20;1.00
12438;DHT22;6283;51.330;12.374;2024-01-15T14:35:52;3.20;1.00
12438;DHT22;6283;51.330;12.374;2024-01-15T14:38:17;3.00;1.00
12438;DHT22;6283;51.330;12.374;2024-01-15T14:40:43;3.10;1.00
12438;DHT22;6283;51.330;12.374;2024-01-15T14:43:10;3.00;1.00
12438;DHT22;6283;51.330;12.374;2024-01-15T14:45:36;3.30;1.00
12438;DHT22;6283;51.330;12.374;2024-01-15T14:48:01;2.80;1.00
12438;DHT22;6283;51.330;12.374;2024-01-15T14:50:27;3.00;1.00
12438;DHT22;6283;51.330;12.374;2024-01-15T14:52:53;2.80;1.00
12438;DHT22;6283;51.330;12.374;2024-01-15T14:55:19;3.10;1.00
12438;DHT22;6283;51.330;12.374;2024-01-15T14:57:45;3.00;1.00
12438;DHT22;6283;51.330;12.374;2024-01-15T15:00:10;2.80;1.00
12438;DHT22;6283;51.330;12.374;2024-01-15T15:02:38;3.10;1.00
12438;DHT22;6283;51.330;12.374;2024-01-15T15:05:04;2.90;1.00
12438;DHT22;6283;51.330;12.374;2024-01-15T15:07:30;3.00;1.00
12438;DHT22;6283;51.330;12.374;2024-01-15T15:09:56;3.10;1.00
12438;DHT22;6283;51.330;12.374;2024-01-15T15:12:21;2.90;1.00
12438;DHT22;6283;51.330;12.374;2024-01-15T15:14:47;3.00;1.00
12438;DHT22;6283;51.330;12.374;2024-01-15T15:17:13;3.00;1.00
12438;DHT22;6283;51.330;12.374;2024-01-15T15:19:38;2.80;1.00
12438;DHT22;6283;51.330;12.374;2024-01-15T15:22:07;2.90;1.00
12438;DHT22;6283;51.330;12.374;2024-01-15T15:24:37;2.90;1.00
12438;DHT22;6283;51.330;12.374;2024-01-15T15:27:04;2.80;1.00
12438;DHT22;6283;51.330;12.374;2024-01-15T15:29:31;3.00;1.00
12438;DHT22;6283;51.330;12.374;2024-01-15T15:31:56;3.00;1.00
12438;DHT22;6283;51.330;12.374;2024-01-15T15:34:22;2.90;1.00
12438;DHT22;6283;51.330;12.374;2024-01-15T15:36:48;2.60;1.00
12438;DHT22;6283;51.330;12.374;2024-01-15T15:39:13;2.60;1.00
12438;DHT22;6283;51.330;12.374;2024-01-15T15:41:44;2.60;1.00
12438;DHT22;6283;51.330;12.374;2024-01-15T15:44:09;2.70;1.00
12438;DHT22;6283;51.330;12.374;2024-01-15T15:46:35;2.90;1.00
12438;DHT22;6283;51.330;12.374;2024-01-15T15:49:01;2.50;1.00
12438;DHT22;6283;51.330;12.374;2024-01-15T15:51:32;2.70;1.00
12438;DHT22;6283;51.330;12.374;2024-01-15T15:53:57;2.50;1.00
12438;DHT22;6283;51.330;12.374;2024-01-15T15:56:23;2.70;1.00
12438;DHT22;6283;51.330;12.374;2024-01-15T15:58:51;2.80;1.00
12438;DHT22;6283;51.330;12.374;2024-01-15T16:01:17;2.40;1.00
12438;DHT22;6283;51.330;12.374;2024-01-15T16:03:42;2.70;1.00
12438;DHT22;6283;51.330;12.374;2024-01-15T16:06:08;2.40;1.00
12438;DHT22;6283;51.330;12.374;2024-01-15T16:08:33;2.20;1.00
12438;DHT22;6283;51.330;12.374;2024-01-15T16:10:59;2.60;1.00